Time;durP1;ratioP1;P1;durP2;ratioP2;P2;SDS_P1;SDS_P2;PMS_P1;PMS_P2;Temp;Humidity;BMP_temperature;BMP_pressure;BME280_temperature;BME280_humidity;BME280_pressure;Samples;Min_cycle;Max_cycle;Signal;HPM_P1;HPM_P2
2023/01/09 00:01:37;;;;;;;7.28;2.00;;;5.20;99.90;;;;;;5045814;28;20079;-49
2023/01/09 00:04:03;;;;;;;4.20;1.88;;;6.10;99.90;;;;;;5046435;28;20048;-46
2023/01/09 00:06:29;;;;;;;5.45;1.70;;;5.20;99.90;;;;;;5045987;28;20053;-48
2023/01/09 00:08:54;;;;;;;4.68;1.75;;;5.20;99.90;;;;;;5046582;28;20116;-47
2023/01/09 00:11:20;;;;;;;3.15;1.40;;;5.30;99.90;;;;;;5028316;28;20060;-47
2023/01/09 00:13:46;;;;;;;3.80;1.88;;;5.30;99.90;;;;;;5047115;28;20071;-47
2023/01/09 00:16:12;;;;;;;3.78;1.30;;;6.30;99.90;;;;;;5046286;28;20056;-47
2023/01/09 00:18:38;;;;;;;4.35;1.88;;;6.40;99.90;;;;;;5027635;28;20052;-46
2023/01/09 00:21:06;;;;;;;3.45;1.48;;;5.50;99.90;;;;;;5046569;28;20160;-46
2023/01/09 00:23:32;;;;;;;5.32;1.23;;;5.60;99.90;;;;;;5046073;28;20079;-46
2023/01/09 00:26:13;;;;;;;5.03;0.90;;;5.40;99.90;;;;;;5045959;28;20045;-47
2023/01/09 00:28:39;;;;;;;4.80;1.50;;;6.70;99.90;;;;;;5046047;28;20454;-47
2023/01/09 00:31:06;;;;;;;3.45;1.27;;;5.70;99.90;;;;;;5046298;28;20053;-47
2023/01/09 00:33:44;;;;;;;4.82;2.30;;;5.60;99.90;;;;;;5045782;28;20040;-48
2023/01/09 00:36:10;;;;;;;4.32;1.42;;;5.80;99.90;;;;;;5046016;28;20063;-47
2023/01/09 00:38:36;;;;;;;9.00;1.50;;;5.90;99.90;;;;;;5046024;28;20122;-48
2023/01/09 00:41:04;;;;;;;10.80;2.03;;;5.90;99.90;;;;;;5046344;28;20043;-47
2023/01/09 00:43:34;;;;;;;4.63;1.65;;;5.90;99.90;;;;;;5046342;28;20075;-47
2023/01/09 00:46:03;;;;;;;7.05;2.17;;;6.10;99.90;;;;;;5046328;28;20045;-46
2023/01/09 00:48:29;;;;;;;7.55;2.13;;;5.80;99.90;;;;;;5045678;28;20849;-47
2023/01/09 00:50:58;;;;;;;5.65;3.25;;;5.70;99.90;;;;;;5046217;28;20076;-46
2023/01/09 00:53:27;;;;;;;7.47;2.53;;;7.10;99.90;;;;;;5046000;28;20048;-48
2023/01/09 00:55:57;;;;;;;7.15;2.10;;;7.00;99.90;;;;;;5046241;28;20025;-47
2023/01/09 00:58:23;;;;;;;5.00;2.40;;;5.80;99.90;;;;;;5045795;28;20099;-49
2023/01/09 01:00:48;;;;;;;7.22;2.88;;;6.00;99.90;;;;;;5046238;28;20033;-47
2023/01/09 01:03:14;;;;;;;7.05;1.98;;;5.80;99.90;;;;;;5045759;28;20593;-47
2023/01/09 01:08:24;;;;;;;7.18;1.38;;;6.00;99.90;;;;;;5049423;28;20060;-48
2023/01/09 01:10:49;;;;;;;2.75;0.90;;;5.90;99.90;;;;;;5049558;28;20033;-47
2023/01/09 01:13:16;;;;;;;2.90;0.75;;;5.50;99.90;;;;;;5049510;28;20076;-47
2023/01/09 01:15:43;;;;;;;2.33;0.70;;;6.70;99.90;;;;;;5049368;28;20047;-47
2023/01/09 01:18:09;;;;;;;4.25;0.60;;;6.40;99.90;;;;;;5049437;28;20041;-46
2023/01/09 01:20:38;;;;;;;1.60;0.43;;;6.80;99.90;;;;;;5049444;28;20084;-46
2023/01/09 01:23:04;;;;;;;1.52;0.22;;;5.50;99.90;;;;;;5049670;28;20151;-46
2023/01/09 01:25:29;;;;;;;2.30;0.40;;;6.00;99.90;;;;;;5049360;28;20128;-47
2023/01/09 01:27:55;;;;;;;1.13;0.30;;;6.30;99.90;;;;;;5049515;28;20041;-47
2023/01/09 01:30:21;;;;;;;1.80;0.30;;;5.80;99.90;;;;;;5049724;28;20060;-50
2023/01/09 01:32:46;;;;;;;2.40;0.30;;;5.50;99.90;;;;;;5049186;28;20111;-46
2023/01/09 01:35:12;;;;;;;3.88;0.45;;;5.60;99.90;;;;;;5049047;28;20049;-46
2023/01/09 01:37:38;;;;;;;2.40;0.30;;;5.50;99.90;;;;;;5049408;28;20041;-48
2023/01/09 01:40:06;;;;;;;6.25;0.50;;;5.40;99.90;;;;;;5049412;28;20051;-47
2023/01/09 01:42:32;;;;;;;2.20;0.30;;;5.50;99.90;;;;;;5048692;28;20700;-47
2023/01/09 01:45:06;;;;;;;3.63;0.45;;;5.50;99.90;;;;;;5049032;28;20112;-46
2023/01/09 01:47:37;;;;;;;2.15;0.40;;;5.40;99.90;;;;;;5048880;28;20064;-47
2023/01/09 01:50:12;;;;;;;1.83;0.40;;;5.40;99.90;;;;;;5049232;28;20041;-46
2023/01/09 01:52:37;;;;;;;4.20;0.90;;;5.40;99.90;;;;;;5049264;28;20712;-47
2023/01/09 01:55:07;;;;;;;4.35;1.15;;;5.30;99.90;;;;;;5049775;28;20087;-46
2023/01/09 01:57:34;;;;;;;6.18;1.20;;;5.30;99.90;;;;;;5049406;28;20049;-47
2023/01/09 02:00:02;;;;;;;5.68;0.90;;;5.30;99.90;;;;;;5048937;28;20527;-47
2023/01/09 02:02:30;;;;;;;5.00;0.68;;;5.70;99.90;;;;;;5049349;28;20053;-46
2023/01/09 02:04:57;;;;;;;5.88;1.08;;;5.20;99.90;;;;;;5048950;28;20063;-49
2023/01/09 02:07:23;;;;;;;2.80;0.52;;;5.80;99.90;;;;;;5048923;28;20120;-47
2023/01/09 02:09:50;;;;;;;2.03;0.65;;;5.20;99.90;;;;;;5048751;28;20137;-46
2023/01/09 02:12:24;;;;;;;4.40;0.88;;;5.20;99.90;;;;;;5048770;28;20483;-46
2023/01/09 02:15:05;;;;;;;2.88;0.57;;;5.20;99.90;;;;;;5048557;28;20041;-49
2023/01/09 02:17:37;;;;;;;3.17;0.60;;;5.20;99.90;;;;;;5030297;28;20056;-47
2023/01/09 02:20:09;;;;;;;3.88;0.82;;;5.00;99.90;;;;;;5048221;28;20429;-48
2023/01/09 02:23:29;;;;;;;3.83;0.82;;;5.30;99.90;;;;;;5048322;28;20098;-47
2023/01/09 02:26:22;;;;;;;4.38;1.17;;;5.30;99.90;;;;;;5024529;28;20499;-46
2023/01/09 02:29:06;;;;;;;7.40;1.83;;;5.40;99.90;;;;;;5047685;28;20040;-48
2023/01/09 02:31:40;;;;;;;7.70;1.63;;;5.30;99.90;;;;;;5048279;28;20040;-49
2023/01/09 02:34:23;;;;;;;4.70;1.42;;;5.30;99.90;;;;;;5047562;28;20047;-49
2023/01/09 02:37:10;;;;;;;5.00;1.73;;;5.00;99.90;;;;;;5047791;28;20040;-46
2023/01/09 02:39:51;;;;;;;5.60;1.85;;;5.20;99.90;;;;;;5048139;28;20580;-49
2023/01/09 02:42:20;;;;;;;7.57;2.25;;;5.10;99.90;;;;;;5047802;28;20041;-47
2023/01/09 02:44:45;;;;;;;5.38;2.20;;;5.00;99.90;;;;;;5047449;28;20174;-47
2023/01/09 02:47:14;;;;;;;6.82;2.20;;;5.20;99.90;;;;;;5047423;28;20131;-47
2023/01/09 02:49:42;;;;;;;6.63;2.47;;;5.10;99.90;;;;;;5047417;28;20119;-51
2023/01/09 02:52:23;;;;;;;9.02;3.17;;;5.10;99.90;;;;;;5047594;28;20094;-48
2023/01/09 02:55:09;;;;;;;7.10;3.10;;;5.10;99.90;;;;;;5047517;28;20052;-46
2023/01/09 02:58:08;;;;;;;7.65;3.55;;;5.10;99.90;;;;;;5047138;28;20116;-49
2023/01/09 03:00:52;;;;;;;11.88;3.90;;;5.10;99.90;;;;;;5047553;28;20049;-46
2023/01/09 03:03:28;;;;;;;12.73;4.35;;;5.90;99.90;;;;;;5047447;28;20045;-48
2023/01/09 03:06:14;;;;;;;8.70;3.60;;;4.80;99.90;;;;;;5047589;28;20061;-46
2023/01/09 03:08:50;;;;;;;10.02;4.10;;;4.90;99.90;;;;;;5047999;28;20037;-48
2023/01/09 03:11:16;;;;;;;10.30;4.32;;;4.90;99.90;;;;;;5047403;28;20717;-47
2023/01/09 03:13:48;;;;;;;11.80;4.35;;;4.80;99.90;;;;;;5047045;28;20076;-47
2023/01/09 03:16:20;;;;;;;14.27;4.00;;;4.80;99.90;;;;;;5046777;28;20645;-48
2023/01/09 03:18:47;;;;;;;9.18;3.75;;;4.80;99.90;;;;;;5047026;28;20040;-46
2023/01/09 03:21:14;;;;;;;11.35;3.88;;;4.70;99.90;;;;;;5046970;28;20097;-46
2023/01/09 03:23:54;;;;;;;10.43;4.10;;;4.70;99.90;;;;;;5046554;28;20051;-48
2023/01/09 03:26:19;;;;;;;7.43;4.20;;;4.60;99.90;;;;;;5045531;28;20055;-47
2023/01/09 03:28:46;;;;;;;12.45;5.90;;;4.50;99.90;;;;;;5045764;28;20044;-49
2023/01/09 03:31:12;;;;;;;12.27;5.68;;;4.40;99.90;;;;;;5046674;28;20445;-46
2023/01/09 03:33:38;;;;;;;6.93;3.90;;;4.50;99.90;;;;;;5046859;28;20044;-46
2023/01/09 03:36:04;;;;;;;7.40;4.03;;;4.40;99.90;;;;;;5046142;28;20045;-48
2023/01/09 03:38:30;;;;;;;9.07;3.60;;;4.40;99.90;;;;;;5047065;28;20049;-47
2023/01/09 03:40:55;;;;;;;9.15;4.22;;;4.40;99.90;;;;;;5046408;28;20118;-48
2023/01/09 03:43:21;;;;;;;10.40;3.90;;;4.40;99.90;;;;;;5047013;28;20045;-46
2023/01/09 03:45:47;;;;;;;9.38;4.00;;;4.20;99.90;;;;;;5046635;28;20068;-46
2023/01/09 03:48:13;;;;;;;9.00;3.97;;;4.30;99.90;;;;;;5046071;28;20122;-46
2023/01/09 03:50:41;;;;;;;11.60;3.97;;;4.10;99.90;;;;;;5046746;28;20045;-49
2023/01/09 03:53:07;;;;;;;10.95;4.47;;;4.10;99.90;;;;;;5046119;28;20506;-47
2023/01/09 03:55:32;;;;;;;14.00;4.10;;;4.00;99.90;;;;;;5046731;28;20052;-47
2023/01/09 03:57:58;;;;;;;18.13;4.38;;;4.00;99.90;;;;;;5046400;28;20051;-49
2023/01/09 04:00:24;;;;;;;15.55;4.65;;;4.00;99.90;;;;;;5046890;28;20041;-47
2023/01/09 04:02:49;;;;;;;14.38;4.57;;;3.90;99.90;;;;;;5046412;28;20087;-47
2023/01/09 04:05:15;;;;;;;16.33;4.47;;;3.90;99.90;;;;;;5046663;28;20100;-46
2023/01/09 04:07:41;;;;;;;12.35;4.20;;;3.80;99.90;;;;;;5046922;28;20045;-46
2023/01/09 04:10:07;;;;;;;11.07;4.60;;;3.80;99.90;;;;;;5046888;28;20090;-49
2023/01/09 04:12:33;;;;;;;11.48;4.63;;;3.70;99.90;;;;;;5047176;28;20045;-48
2023/01/09 04:14:59;;;;;;;12.93;4.00;;;3.70;99.90;;;;;;5046663;28;20033;-46
2023/01/09 04:17:24;;;;;;;11.85;4.63;;;3.60;99.90;;;;;;5046361;28;20416;-46
2023/01/09 04:19:50;;;;;;;13.98;4.75;;;3.60;99.90;;;;;;5046477;28;20095;-46
2023/01/09 04:22:16;;;;;;;9.20;4.18;;;3.50;99.90;;;;;;5046368;28;20372;-47
2023/01/09 04:24:41;;;;;;;12.00;5.05;;;3.50;99.90;;;;;;5046487;28;20087;-46
2023/01/09 04:27:07;;;;;;;14.25;4.88;;;3.50;99.90;;;;;;5046301;28;20123;-48
2023/01/09 04:29:33;;;;;;;13.65;5.82;;;3.50;99.90;;;;;;5046845;28;20041;-47
2023/01/09 04:31:58;;;;;;;11.52;5.07;;;3.50;99.90;;;;;;5046555;28;20033;-46
2023/01/09 04:34:24;;;;;;;16.42;6.32;;;3.50;99.90;;;;;;5045966;28;20709;-48
2023/01/09 04:36:54;;;;;;;12.70;5.85;;;3.50;99.90;;;;;;5046799;28;20052;-48
2023/01/09 04:39:20;;;;;;;14.75;6.53;;;3.40;99.90;;;;;;5046740;28;20047;-48
2023/01/09 04:41:49;;;;;;;17.98;6.72;;;3.50;99.90;;;;;;5050527;28;20076;-47
2023/01/09 04:44:20;;;;;;;21.77;8.93;;;3.50;99.90;;;;;;5050132;28;20041;-47
2023/01/09 04:46:46;;;;;;;22.65;7.80;;;3.50;99.90;;;;;;5050093;28;20047;-49
2023/01/09 04:49:12;;;;;;;19.33;9.75;;;3.50;99.90;;;;;;5049725;28;20072;-48
2023/01/09 04:51:37;;;;;;;23.50;10.32;;;3.50;99.90;;;;;;5049586;28;20048;-47
2023/01/09 04:54:03;;;;;;;31.40;12.27;;;4.40;99.90;;;;;;5049658;28;20052;-46
2023/01/09 04:56:29;;;;;;;27.98;12.32;;;3.50;99.90;;;;;;5049621;28;20544;-47
2023/01/09 04:58:55;;;;;;;29.25;12.45;;;3.40;99.90;;;;;;5050024;28;20343;-50
2023/01/09 05:01:21;;;;;;;20.75;10.68;;;3.30;99.90;;;;;;5049598;28;20471;-46
2023/01/09 05:03:46;;;;;;;27.33;12.00;;;3.40;99.90;;;;;;5050135;28;20080;-47
2023/01/09 05:06:12;;;;;;;31.17;11.90;;;3.40;99.90;;;;;;5049307;28;20053;-49
2023/01/09 05:08:38;;;;;;;29.73;12.10;;;3.40;99.90;;;;;;5050154;28;20506;-46
2023/01/09 05:11:03;;;;;;;35.83;15.13;;;3.50;99.90;;;;;;5031701;28;20040;-48
2023/01/09 05:13:29;;;;;;;33.55;14.20;;;3.60;99.90;;;;;;5049856;28;20687;-47
2023/01/09 05:15:55;;;;;;;27.73;13.02;;;3.60;99.90;;;;;;5050086;28;20076;-49
2023/01/09 05:18:20;;;;;;;32.72;13.73;;;3.70;99.90;;;;;;5049518;28;20037;-46
2023/01/09 05:20:46;;;;;;;40.30;15.43;;;3.70;99.90;;;;;;5048562;28;20140;-47
2023/01/09 05:23:12;;;;;;;33.80;14.95;;;3.80;99.90;;;;;;5049696;28;20041;-47
2023/01/09 05:25:38;;;;;;;34.85;15.95;;;4.10;99.90;;;;;;5049458;28;20045;-47
2023/01/09 05:28:03;;;;;;;45.50;17.48;;;4.00;99.90;;;;;;5049262;28;20451;-49
2023/01/09 05:30:29;;;;;;;44.03;18.65;;;4.00;99.90;;;;;;5049349;28;20376;-47
2023/01/09 05:32:55;;;;;;;43.30;17.98;;;4.10;99.90;;;;;;5049078;28;20071;-47
2023/01/09 05:35:20;;;;;;;49.67;20.05;;;4.00;99.90;;;;;;5048021;28;20041;-46
2023/01/09 05:37:46;;;;;;;44.28;17.63;;;4.20;99.90;;;;;;5049107;28;20049;-46
2023/01/09 05:40:12;;;;;;;53.03;19.25;;;4.20;99.90;;;;;;5048266;28;20067;-46
2023/01/09 05:42:38;;;;;;;44.20;19.70;;;4.20;99.90;;;;;;5048658;28;20053;-47
2023/01/09 05:45:04;;;;;;;44.72;19.70;;;4.20;99.90;;;;;;5049028;28;20044;-48
2023/01/09 05:47:30;;;;;;;41.65;19.50;;;4.20;99.90;;;;;;5049374;28;20421;-47
2023/01/09 05:49:56;;;;;;;43.67;19.35;;;4.30;99.90;;;;;;5049295;28;20049;-46
2023/01/09 05:52:23;;;;;;;46.15;19.95;;;4.30;99.90;;;;;;5048457;28;20450;-47
2023/01/09 05:54:49;;;;;;;48.53;20.33;;;4.20;99.90;;;;;;5049024;28;20048;-47
2023/01/09 05:57:14;;;;;;;42.00;19.75;;;4.40;99.90;;;;;;5048554;28;20041;-47
2023/01/09 05:59:40;;;;;;;40.75;19.65;;;4.40;99.90;;;;;;5048984;28;20080;-47
2023/01/09 06:02:06;;;;;;;41.35;19.52;;;4.30;99.90;;;;;;5048337;28;20056;-48
2023/01/09 06:04:31;;;;;;;43.22;20.02;;;4.50;99.90;;;;;;5030305;28;20037;-47
2023/01/09 06:06:57;;;;;;;40.15;19.40;;;4.50;99.90;;;;;;5048587;28;20079;-48
2023/01/09 06:09:23;;;;;;;45.50;20.05;;;4.50;99.90;;;;;;5048411;28;20079;-45
2023/01/09 06:11:49;;;;;;;45.90;18.98;;;4.80;99.90;;;;;;5048564;28;20110;-47
2023/01/09 06:14:14;;;;;;;41.70;19.38;;;4.60;99.90;;;;;;5048516;28;20139;-47
2023/01/09 06:16:40;;;;;;;39.63;18.42;;;4.60;99.90;;;;;;5048071;28;20091;-48
2023/01/09 06:19:06;;;;;;;38.17;17.20;;;4.60;99.90;;;;;;5048508;28;20075;-46
2023/01/09 06:21:32;;;;;;;42.72;19.42;;;4.70;99.90;;;;;;5048099;28;20055;-48
2023/01/09 06:23:58;;;;;;;44.60;18.80;;;4.60;99.90;;;;;;5048673;28;20036;-48
2023/01/09 06:26:25;;;;;;;42.97;17.17;;;4.60;99.90;;;;;;5048353;28;20501;-47
2023/01/09 06:28:51;;;;;;;37.30;17.38;;;4.70;99.90;;;;;;5048229;28;20456;-46
2023/01/09 06:31:17;;;;;;;37.78;17.17;;;4.70;99.90;;;;;;5047754;28;20123;-47
2023/01/09 06:33:42;;;;;;;38.33;17.05;;;4.70;99.90;;;;;;5047691;28;20422;-47
2023/01/09 06:36:08;;;;;;;42.72;18.38;;;4.70;99.90;;;;;;5047254;28;20041;-46
2023/01/09 06:38:34;;;;;;;45.50;19.17;;;4.20;99.90;;;;;;5047458;28;20045;-49
2023/01/09 06:40:59;;;;;;;30.85;16.00;;;4.70;99.90;;;;;;5047859;28;20102;-48
2023/01/09 06:43:25;;;;;;;37.67;17.65;;;4.70;99.90;;;;;;5047968;28;20817;-46
2023/01/09 06:45:51;;;;;;;32.92;16.05;;;5.60;99.90;;;;;;5047927;28;20141;-47
2023/01/09 06:48:17;;;;;;;32.80;15.35;;;4.70;99.90;;;;;;5047417;28;20041;-46
2023/01/09 06:50:43;;;;;;;34.85;14.18;;;4.70;99.90;;;;;;5047637;28;20458;-47
2023/01/09 06:53:09;;;;;;;33.25;14.63;;;4.70;99.90;;;;;;5047680;28;20126;-48
2023/01/09 06:55:35;;;;;;;32.20;15.13;;;4.70;99.90;;;;;;5047239;28;20048;-47
2023/01/09 06:58:01;;;;;;;28.60;14.57;;;4.70;99.90;;;;;;5047472;28;20044;-48
2023/01/09 07:00:27;;;;;;;29.30;13.10;;;4.70;99.90;;;;;;5046942;28;20056;-46
2023/01/09 07:02:52;;;;;;;29.20;13.63;;;4.70;99.90;;;;;;5046727;28;20049;-46
2023/01/09 07:05:18;;;;;;;27.08;13.23;;;4.70;99.90;;;;;;5046693;28;20079;-47
2023/01/09 07:07:43;;;;;;;29.10;12.13;;;4.80;99.90;;;;;;5047078;28;20048;-46
2023/01/09 07:10:10;;;;;;;24.88;12.23;;;4.50;99.90;;;;;;5046859;28;20512;-47
2023/01/09 07:12:36;;;;;;;26.45;12.73;;;4.70;99.90;;;;;;5047048;28;20040;-47
2023/01/09 07:15:01;;;;;;;24.20;12.68;;;4.60;99.90;;;;;;5047310;28;20683;-46
2023/01/09 07:17:27;;;;;;;20.10;10.32;;;4.70;99.90;;;;;;5046934;28;20571;-46
2023/01/09 07:19:53;;;;;;;20.88;11.05;;;4.60;99.90;;;;;;5047534;28;20522;-46
2023/01/09 07:22:18;;;;;;;28.13;11.32;;;4.60;99.90;;;;;;5047517;28;20133;-47
2023/01/09 07:24:44;;;;;;;21.35;10.30;;;5.60;99.90;;;;;;5046980;28;20083;-47
2023/01/09 07:27:10;;;;;;;22.75;10.95;;;4.60;99.90;;;;;;5047101;28;20040;-47
2023/01/09 07:29:36;;;;;;;20.52;10.07;;;4.20;99.90;;;;;;5046889;28;20037;-48
2023/01/09 07:32:03;;;;;;;22.92;11.70;;;4.50;99.90;;;;;;5046902;28;20101;-45
2023/01/09 07:34:28;;;;;;;24.70;11.32;;;4.50;99.90;;;;;;5046245;28;20048;-46
2023/01/09 07:36:54;;;;;;;21.75;11.02;;;4.20;99.90;;;;;;5046738;28;20041;-47
2023/01/09 07:39:20;;;;;;;23.45;11.27;;;4.30;99.90;;;;;;5046647;28;20052;-47
2023/01/09 07:41:45;;;;;;;24.83;11.90;;;5.20;99.90;;;;;;5046272;28;20049;-48
2023/01/09 07:44:12;;;;;;;25.83;10.50;;;4.10;99.90;;;;;;5046405;28;20052;-48
2023/01/09 07:46:37;;;;;;;21.75;10.05;;;4.00;99.90;;;;;;5046406;28;20077;-46
2023/01/09 07:49:03;;;;;;;21.42;10.27;;;4.00;99.90;;;;;;5046928;28;20811;-46
2023/01/09 07:51:29;;;;;;;18.98;9.50;;;4.00;99.90;;;;;;5046721;28;20045;-48
2023/01/09 07:53:54;;;;;;;21.92;10.35;;;3.90;99.90;;;;;;5045524;28;20503;-46
2023/01/09 07:56:20;;;;;;;19.10;9.15;;;4.10;99.90;;;;;;5046845;28;20103;-48
2023/01/09 07:58:46;;;;;;;26.98;11.38;;;4.20;99.90;;;;;;5046545;28;20083;-46
2023/01/09 08:01:12;;;;;;;18.67;8.68;;;4.20;99.90;;;;;;5047235;28;20041;-46
2023/01/09 08:03:37;;;;;;;16.73;7.78;;;4.20;99.90;;;;;;5046097;28;20032;-47
2023/01/09 08:06:03;;;;;;;27.10;10.02;;;4.20;99.90;;;;;;5046225;28;20057;-47
2023/01/09 08:08:29;;;;;;;15.25;7.53;;;4.20;99.90;;;;;;5046153;28;20919;-47
2023/01/09 08:10:54;;;;;;;15.02;7.03;;;4.20;99.90;;;;;;5046525;28;20518;-47
2023/01/09 08:13:21;;;;;;;14.57;7.80;;;4.20;99.90;;;;;;5046504;28;20076;-46
2023/01/09 08:15:46;;;;;;;19.40;7.90;;;4.30;99.90;;;;;;5046025;28;20091;-46
2023/01/09 08:18:12;;;;;;;17.50;7.03;;;4.30;99.90;;;;;;5046509;28;20037;-47
2023/01/09 08:20:38;;;;;;;16.50;7.75;;;4.30;99.90;;;;;;5046416;28;20072;-46
2023/01/09 08:23:03;;;;;;;14.23;6.55;;;4.20;99.90;;;;;;5046646;28;20040;-47
2023/01/09 08:25:29;;;;;;;19.60;7.50;;;4.40;99.90;;;;;;5046542;28;20040;-48
2023/01/09 08:27:55;;;;;;;17.45;6.78;;;4.70;99.90;;;;;;5045809;28;20040;-48
2023/01/09 08:30:20;;;;;;;14.75;7.18;;;4.10;99.90;;;;;;5046839;28;20144;-47
2023/01/09 08:32:50;;;;;;;11.90;6.13;;;4.80;99.90;;;;;;5046090;28;20158;-47
2023/01/09 08:35:16;;;;;;;16.35;6.75;;;4.60;99.90;;;;;;5045847;28;20403;-49
2023/01/09 08:37:46;;;;;;;13.77;6.00;;;4.60;99.90;;;;;;5028094;28;20052;-47
2023/01/09 08:40:13;;;;;;;16.08;7.03;;;4.70;99.90;;;;;;5046154;28;20056;-48
2023/01/09 08:48:08;;;;;;;16.20;6.25;;;4.80;99.90;;;;;;5046511;28;20093;-46
2023/01/09 08:50:33;;;;;;;15.38;6.03;;;4.80;99.90;;;;;;5046775;28;20049;-48
2023/01/09 08:52:59;;;;;;;15.13;5.82;;;4.80;99.90;;;;;;5046445;28;20352;-48
2023/01/09 08:55:25;;;;;;;10.90;5.60;;;4.80;99.90;;;;;;5046475;28;20081;-47
2023/01/09 08:57:52;;;;;;;11.10;5.20;;;4.70;99.90;;;;;;5046177;28;20049;-49
2023/01/09 09:00:20;;;;;;;9.65;5.43;;;4.80;99.90;;;;;;5046582;28;20170;-47
2023/01/09 09:02:51;;;;;;;12.95;5.93;;;4.70;99.90;;;;;;5046483;28;20045;-47
2023/01/09 09:05:17;;;;;;;14.32;5.63;;;4.80;99.90;;;;;;5011685;28;20106;-48
2023/01/09 09:07:43;;;;;;;12.82;5.68;;;4.90;99.90;;;;;;5043580;28;20407;-50
2023/01/09 09:10:09;;;;;;;10.10;4.50;;;4.90;99.90;;;;;;5044225;28;20094;-46
2023/01/09 09:12:35;;;;;;;13.93;5.65;;;5.10;99.90;;;;;;5044256;28;20098;-50
2023/01/09 09:15:15;;;;;;;11.73;5.10;;;5.10;99.90;;;;;;5043855;28;20037;-46
2023/01/09 09:17:41;;;;;;;13.77;5.28;;;5.20;99.90;;;;;;5043436;28;20056;-49
2023/01/09 09:20:08;;;;;;;11.75;5.18;;;5.10;99.90;;;;;;5044341;28;20128;-46
2023/01/09 09:22:34;;;;;;;17.25;5.35;;;5.40;99.90;;;;;;5043121;28;20529;-52
2023/01/09 09:25:00;;;;;;;11.90;5.28;;;5.40;99.90;;;;;;5043904;28;20045;-48
2023/01/09 09:27:25;;;;;;;9.48;5.15;;;5.50;99.90;;;;;;5045779;28;20149;-49
2023/01/09 09:29:51;;;;;;;11.55;5.55;;;5.50;99.90;;;;;;5047294;28;20047;-47
2023/01/09 09:32:17;;;;;;;12.50;5.20;;;5.40;99.90;;;;;;5047515;28;20053;-46
2023/01/09 09:34:42;;;;;;;12.50;5.90;;;5.40;99.90;;;;;;5046984;28;20051;-48
2023/01/09 09:37:08;;;;;;;14.27;6.45;;;6.60;99.90;;;;;;5047701;28;20044;-47
2023/01/09 09:39:34;;;;;;;11.77;5.53;;;5.50;99.90;;;;;;5047610;28;20049;-48
2023/01/09 09:45:30;;;;;;;10.70;5.22;;;6.00;99.90;;;;;;5047044;28;20118;-47
2023/01/09 09:48:22;;;;;;;11.05;5.63;;;6.00;99.90;;;;;;5043943;28;20099;-47
2023/01/09 09:51:06;;;;;;;10.10;4.75;;;5.90;99.90;;;;;;5046464;28;20084;-49
2023/01/09 09:53:45;;;;;;;12.63;5.28;;;6.20;99.90;;;;;;5047212;28;20144;-47
2023/01/09 09:56:14;;;;;;;16.17;6.57;;;6.40;99.90;;;;;;5047333;28;20046;-47
2023/01/09 09:58:41;;;;;;;11.10;4.53;;;6.90;99.90;;;;;;5047248;28;20040;-48
2023/01/09 10:01:10;;;;;;;15.20;5.32;;;6.10;99.90;;;;;;5047122;28;20044;-49
2023/01/09 10:03:38;;;;;;;14.48;5.93;;;6.40;99.90;;;;;;5046735;28;20037;-47
2023/01/09 10:06:41;;;;;;;13.07;4.60;;;6.10;99.90;;;;;;5038511;28;20177;-46
2023/01/09 10:09:35;;;;;;;11.70;4.55;;;6.30;99.90;;;;;;5063668;28;20127;-49
2023/01/09 10:12:04;;;;;;;8.90;4.57;;;6.20;99.90;;;;;;5064285;28;20169;-48
2023/01/09 10:14:30;;;;;;;9.48;4.45;;;6.10;99.90;;;;;;5066763;28;20055;-47
2023/01/09 10:17:30;;;;;;;11.00;5.57;;;6.20;99.90;;;;;;5067103;28;20047;-47
2023/01/09 10:20:01;;;;;;;7.82;4.57;;;6.40;99.90;;;;;;5066336;28;20049;-45
2023/01/09 10:22:55;;;;;;;11.83;4.47;;;6.30;99.90;;;;;;5048574;28;20059;-57
2023/01/09 10:25:26;;;;;;;10.68;4.38;;;6.50;99.90;;;;;;5042956;28;20268;-47
2023/01/09 10:28:18;;;;;;;10.30;4.05;;;6.50;99.90;;;;;;5028338;28;20037;-51
2023/01/09 10:31:12;;;;;;;8.65;3.90;;;6.50;99.90;;;;;;5017177;28;20064;-48
2023/01/09 10:33:59;;;;;;;10.07;3.78;;;6.50;99.90;;;;;;5045000;28;20758;-38
2023/01/09 10:36:43;;;;;;;14.00;5.00;;;6.60;99.90;;;;;;5045728;28;20039;-37
2023/01/09 10:39:34;;;;;;;9.40;3.92;;;6.70;99.90;;;;;;5044993;28;20048;-38
2023/01/09 10:42:32;;;;;;;9.95;4.20;;;6.80;99.90;;;;;;5045634;28;20044;-39
2023/01/09 10:45:12;;;;;;;13.35;4.68;;;6.90;99.90;;;;;;5027878;28;20506;-39
2023/01/09 10:47:39;;;;;;;10.80;3.60;;;6.90;99.90;;;;;;5045577;28;20048;-40
2023/01/09 10:50:36;;;;;;;11.13;3.50;;;6.90;99.90;;;;;;5045435;28;20045;-39
2023/01/09 10:53:35;;;;;;;10.15;3.40;;;6.90;99.90;;;;;;5045030;28;20051;-38
2023/01/09 10:56:12;;;;;;;9.32;2.88;;;6.90;99.90;;;;;;5041606;28;20053;-39
2023/01/09 10:58:37;;;;;;;11.75;3.75;;;6.90;99.90;;;;;;5045080;28;20466;-39
2023/01/09 11:01:04;;;;;;;7.45;3.58;;;6.90;99.90;;;;;;5044676;28;20045;-39
2023/01/09 11:03:30;;;;;;;7.85;3.35;;;6.90;99.90;;;;;;5044461;28;20139;-42
2023/01/09 11:05:57;;;;;;;15.32;3.72;;;6.90;99.90;;;;;;5008114;28;20059;-39
2023/01/09 11:08:35;;;;;;;8.23;3.00;;;7.90;99.90;;;;;;5044559;28;20048;-40
2023/01/09 11:11:02;;;;;;;10.77;4.15;;;6.80;99.90;;;;;;5044530;28;20114;-39
2023/01/09 11:13:31;;;;;;;7.03;3.22;;;6.80;99.90;;;;;;5045093;28;20044;-38
2023/01/09 11:16:22;;;;;;;7.90;3.30;;;6.60;99.90;;;;;;5043966;28;20585;-39
2023/01/09 11:18:54;;;;;;;8.13;3.85;;;6.70;99.90;;;;;;5044167;28;20481;-39
2023/01/09 11:21:40;;;;;;;9.38;4.03;;;6.60;99.90;;;;;;5006779;28;20048;-40
2023/01/09 11:24:18;;;;;;;6.07;4.00;;;6.50;99.90;;;;;;5044084;28;20040;-40
2023/01/09 11:27:12;;;;;;;9.65;3.92;;;6.60;99.90;;;;;;5045325;28;20109;-39
2023/01/09 11:29:42;;;;;;;12.30;3.90;;;7.10;99.90;;;;;;5045719;28;20044;-39
2023/01/09 11:32:22;;;;;;;8.65;4.13;;;6.60;99.90;;;;;;5044741;28;20574;-40
2023/01/09 11:34:48;;;;;;;6.57;3.70;;;6.60;99.90;;;;;;5045469;28;20049;-39
2023/01/09 11:37:21;;;;;;;11.57;5.10;;;6.60;99.90;;;;;;5044861;28;20079;-38
2023/01/09 11:39:47;;;;;;;8.55;3.97;;;7.20;99.90;;;;;;5045248;28;20123;-39
2023/01/09 11:45:18;;;;;;;6.65;4.05;;;6.70;99.90;;;;;;5044763;28;20479;-39
2023/01/09 11:47:45;;;;;;;12.43;4.53;;;6.80;99.90;;;;;;5045384;28;20040;-39
2023/01/09 11:50:20;;;;;;;7.55;4.63;;;6.80;99.90;;;;;;5044495;28;20059;-39
2023/01/09 11:53:06;;;;;;;10.93;4.38;;;6.80;99.90;;;;;;5027742;28;20049;-37
2023/01/09 11:55:31;;;;;;;11.60;4.88;;;7.60;99.90;;;;;;5027892;28;20059;-39
2023/01/09 11:57:57;;;;;;;9.52;4.28;;;6.80;99.90;;;;;;5045059;28;20406;-39
2023/01/09 12:00:27;;;;;;;8.30;4.70;;;6.80;99.90;;;;;;5044860;28;20048;-39
2023/01/09 12:02:58;;;;;;;10.77;4.22;;;6.80;99.90;;;;;;5044643;28;20632;-39
2023/01/09 12:05:32;;;;;;;9.90;4.68;;;6.80;99.90;;;;;;5025089;28;20414;-39
2023/01/09 12:07:58;;;;;;;13.02;5.38;;;6.70;99.90;;;;;;5043819;28;20083;-42
2023/01/09 12:10:34;;;;;;;10.35;5.43;;;6.70;99.90;;;;;;5025490;28;20462;-42
2023/01/09 12:13:41;;;;;;;11.52;5.68;;;6.70;99.90;;;;;;5044102;28;20048;-42
2023/01/09 12:16:28;;;;;;;10.45;5.03;;;6.70;99.90;;;;;;5043901;28;20053;-43
2023/01/09 12:19:04;;;;;;;13.05;6.55;;;6.60;99.90;;;;;;5044185;28;20132;-42
2023/01/09 12:21:33;;;;;;;11.55;5.90;;;6.70;99.90;;;;;;5023703;28;20061;-41
2023/01/09 12:24:11;;;;;;;12.98;5.93;;;6.60;99.90;;;;;;5043452;28;20040;-41
2023/01/09 12:27:18;;;;;;;12.00;6.07;;;7.10;99.90;;;;;;5043972;28;20041;-41
2023/01/09 12:29:57;;;;;;;12.82;7.13;;;6.70;99.90;;;;;;5026080;28;20041;-43
2023/01/09 12:32:43;;;;;;;14.57;7.25;;;6.70;99.90;;;;;;5043201;28;20131;-43
2023/01/09 12:35:32;;;;;;;12.98;6.72;;;6.70;99.90;;;;;;5043573;28;20049;-44
2023/01/09 12:38:43;;;;;;;15.70;7.10;;;6.70;99.90;;;;;;5025797;28;20406;-47
2023/01/09 12:41:21;;;;;;;13.82;6.90;;;6.70;99.90;;;;;;5039524;28;20083;-46
2023/01/09 12:44:17;;;;;;;12.27;7.53;;;6.80;99.90;;;;;;5043581;28;20045;-45
2023/01/09 12:47:04;;;;;;;12.80;7.93;;;6.80;99.90;;;;;;5043992;28;20836;-46
2023/01/09 12:49:38;;;;;;;18.02;7.47;;;6.80;99.90;;;;;;5043294;28;20045;-46
2023/01/09 12:52:22;;;;;;;15.75;7.57;;;6.80;99.90;;;;;;5043685;28;20045;-46
2023/01/09 12:55:04;;;;;;;14.55;7.60;;;6.80;99.90;;;;;;5043822;28;20045;-47
2023/01/09 12:57:41;;;;;;;14.15;7.15;;;6.80;99.90;;;;;;5043668;28;20033;-45
2023/01/09 13:00:22;;;;;;;12.43;7.43;;;6.80;99.90;;;;;;5044264;28;20045;-45
2023/01/09 13:03:11;;;;;;;12.95;7.40;;;6.80;99.90;;;;;;5012552;28;20084;-43
2023/01/09 13:05:53;;;;;;;10.98;7.22;;;6.80;99.90;;;;;;5024637;28;20053;-42
2023/01/09 13:08:40;;;;;;;15.10;8.02;;;7.70;99.90;;;;;;5028651;28;20052;-43
2023/01/09 13:11:14;;;;;;;15.52;7.47;;;6.80;99.90;;;;;;5047020;28;20037;-43
2023/01/09 13:14:03;;;;;;;13.95;7.22;;;6.80;99.90;;;;;;5046985;28;20047;-45
2023/01/09 13:16:40;;;;;;;15.20;8.10;;;6.80;99.90;;;;;;5046720;28;20098;-43
2023/01/09 13:19:13;;;;;;;14.60;8.25;;;7.00;99.90;;;;;;5046816;28;20045;-40
2023/01/09 13:21:40;;;;;;;15.00;7.95;;;6.80;99.90;;;;;;5026409;28;20060;-40